createdAt,value
2018-08-17T00:00:29.600Z,0.00
2018-08-17T00:01:29.584Z,0.00
2018-08-17T00:02:29.576Z,0.00
2018-08-17T00:03:29.569Z,0.00
2018-08-17T00:04:29.563Z,0.00
2018-08-17T00:05:29.557Z,0.00
2018-08-17T00:06:29.553Z,0.00
2018-08-17T00:07:29.545Z,0.00
2018-08-17T00:08:29.533Z,0.00
2018-08-17T00:09:29.531Z,0.00
2018-08-17T00:10:29.517Z,0.00
2018-08-17T00:11:29.516Z,0.00
2018-08-17T00:12:29.502Z,0.00
2018-08-17T00:13:29.499Z,0.00
2018-08-17T00:14:29.492Z,0.00
2018-08-17T00:15:29.484Z,0.00
2018-08-17T00:16:29.474Z,0.00
2018-08-17T00:17:29.466Z,0.00
2018-08-17T00:18:29.468Z,0.00
2018-08-17T00:19:29.458Z,0.00
2018-08-17T00:20:29.445Z,0.00
2018-08-17T00:21:29.440Z,0.00
2018-08-17T00:22:29.431Z,0.00
2018-08-17T00:23:29.423Z,0.00
2018-08-17T00:24:29.419Z,0.00
2018-08-17T00:25:29.410Z,0.00
2018-08-17T00:26:29.397Z,0.00
2018-08-17T00:27:29.394Z,0.00
2018-08-17T00:28:29.382Z,0.00
2018-08-17T00:29:29.378Z,0.00
2018-08-17T00:30:29.376Z,0.00
2018-08-17T00:31:29.364Z,0.00
2018-08-17T00:32:29.352Z,0.00
2018-08-17T00:33:29.345Z,0.00
2018-08-17T00:34:29.342Z,0.00
2018-08-17T00:35:29.337Z,0.00
2018-08-17T00:36:29.326Z,0.00
2018-08-17T00:37:29.317Z,0.00
2018-08-17T00:38:29.313Z,0.00
2018-08-17T00:39:29.306Z,0.00
2018-08-17T00:40:29.295Z,0.00
2018-08-17T00:41:29.289Z,0.00
2018-08-17T00:42:29.288Z,0.00
2018-08-17T00:43:29.273Z,0.00
2018-08-17T00:44:29.260Z,0.00
2018-08-17T00:45:29.258Z,0.00
2018-08-17T00:46:29.270Z,0.00
2018-08-17T00:47:29.241Z,0.00
2018-08-17T00:48:29.236Z,0.00
2018-08-17T00:49:29.229Z,0.00
2018-08-17T00:50:29.266Z,0.00
2018-08-17T00:51:29.213Z,0.00
2018-08-17T00:52:29.207Z,0.00
2018-08-17T00:53:29.195Z,0.00
2018-08-17T00:54:29.200Z,0.00
2018-08-17T00:55:29.185Z,0.00
2018-08-17T00:56:29.176Z,0.00
2018-08-17T00:57:29.169Z,0.00
2018-08-17T00:58:29.166Z,0.00
2018-08-17T00:59:29.148Z,0.00
2018-08-17T01:00:29.140Z,0.00
2018-08-17T01:01:29.133Z,0.00
2018-08-17T01:02:29.126Z,0.00
2018-08-17T01:03:29.123Z,0.00
2018-08-17T01:04:29.114Z,0.00
2018-08-17T01:05:29.106Z,0.00
2018-08-17T01:06:29.100Z,0.00
2018-08-17T01:07:29.093Z,0.00
2018-08-17T01:08:29.084Z,0.00
2018-08-17T01:09:29.073Z,0.00
2018-08-17T01:10:29.065Z,0.00
2018-08-17T01:11:29.059Z,0.00
2018-08-17T01:12:29.056Z,0.00
2018-08-17T01:13:29.049Z,0.00
2018-08-17T01:14:29.039Z,0.00
2018-08-17T01:15:29.032Z,0.00
2018-08-17T01:16:29.020Z,0.00
2018-08-17T01:17:29.010Z,0.00
2018-08-17T01:18:29.011Z,0.00
2018-08-17T01:19:28.996Z,0.00
2018-08-17T01:20:28.991Z,0.00
2018-08-17T01:21:28.981Z,0.00
2018-08-17T01:22:28.973Z,0.00
2018-08-17T01:23:28.968Z,0.00
2018-08-17T01:24:28.963Z,0.00
2018-08-17T01:25:28.954Z,0.00
2018-08-17T01:26:28.947Z,0.00
2018-08-17T01:27:28.939Z,0.00
2018-08-17T01:28:28.932Z,0.00
2018-08-17T01:29:28.918Z,0.00
2018-08-17T01:30:28.912Z,0.00
2018-08-17T01:31:28.907Z,0.00
2018-08-17T01:32:28.895Z,0.00
2018-08-17T01:33:28.889Z,0.00
2018-08-17T01:34:28.881Z,0.00
2018-08-17T01:35:28.877Z,0.00
2018-08-17T01:36:28.872Z,0.00
2018-08-17T01:37:28.865Z,0.00
2018-08-17T01:38:28.856Z,0.00
2018-08-17T01:39:28.840Z,0.00
2018-08-17T01:40:28.832Z,0.00
2018-08-17T01:41:28.830Z,0.00
2018-08-17T01:42:28.822Z,0.00
2018-08-17T01:43:28.808Z,0.00
2018-08-17T01:44:28.806Z,0.00
2018-08-17T01:45:28.799Z,0.00
2018-08-17T01:46:28.794Z,0.00
2018-08-17T01:47:28.783Z,0.00
2018-08-17T01:48:28.775Z,0.00
2018-08-17T01:49:28.763Z,0.00
2018-08-17T01:50:28.759Z,0.00
2018-08-17T01:51:28.750Z,0.00
2018-08-17T01:52:28.743Z,0.00
2018-08-17T01:53:28.734Z,0.00
2018-08-17T01:54:28.730Z,0.00
2018-08-17T01:55:28.718Z,0.00
2018-08-17T01:56:28.709Z,0.00
2018-08-17T01:57:28.705Z,0.00
2018-08-17T01:58:28.701Z,0.00
2018-08-17T01:59:28.683Z,0.00
2018-08-17T02:00:28.677Z,0.00
2018-08-17T02:01:28.668Z,0.00
2018-08-17T02:02:28.657Z,0.00
2018-08-17T02:03:28.655Z,0.00
2018-08-17T02:04:28.644Z,0.00
2018-08-17T02:05:28.636Z,0.00
2018-08-17T02:06:28.632Z,0.00
2018-08-17T02:07:28.618Z,0.00
2018-08-17T02:08:28.612Z,0.00
2018-08-17T02:09:28.606Z,0.00
2018-08-17T02:10:28.596Z,0.00
2018-08-17T02:11:28.587Z,0.00
2018-08-17T02:12:28.587Z,0.00
2018-08-17T02:13:28.577Z,0.00
2018-08-17T02:14:28.577Z,0.00
2018-08-17T02:15:28.561Z,0.00
2018-08-17T02:16:28.555Z,0.00
2018-08-17T02:17:28.539Z,0.00
2018-08-17T02:18:28.537Z,0.00
2018-08-17T02:19:28.522Z,0.00
2018-08-17T02:20:28.518Z,0.00
2018-08-17T02:21:28.510Z,0.00
2018-08-17T02:22:28.504Z,0.00
2018-08-17T02:23:28.497Z,0.00
2018-08-17T02:24:28.620Z,0.00
2018-08-17T02:25:28.477Z,0.00
2018-08-17T02:26:28.475Z,0.00
2018-08-17T02:27:28.466Z,0.00
2018-08-17T02:28:28.450Z,0.00
2018-08-17T02:29:28.458Z,0.00
2018-08-17T02:30:28.441Z,0.00
2018-08-17T02:31:28.428Z,0.00
2018-08-17T02:32:28.423Z,0.00
2018-08-17T02:33:28.412Z,0.00
2018-08-17T02:34:28.405Z,0.00
2018-08-17T02:35:28.402Z,0.00
2018-08-17T02:36:28.388Z,0.00
2018-08-17T02:37:28.387Z,0.00
2018-08-17T02:38:28.372Z,0.00
2018-08-17T02:39:28.369Z,0.00
2018-08-17T02:40:28.355Z,0.00
2018-08-17T02:41:28.352Z,0.00
2018-08-17T02:42:28.342Z,0.00
2018-08-17T02:43:28.330Z,0.00
2018-08-17T02:44:28.322Z,0.00
2018-08-17T02:45:28.318Z,0.00
2018-08-17T02:46:28.307Z,0.00
2018-08-17T02:47:28.302Z,0.00
2018-08-17T02:48:28.295Z,0.00
2018-08-17T02:49:28.284Z,0.00
2018-08-17T02:50:28.278Z,0.00
2018-08-17T02:51:28.268Z,0.00
2018-08-17T02:52:28.265Z,0.00
2018-08-17T02:53:28.252Z,0.00
2018-08-17T02:54:28.249Z,0.00
2018-08-17T02:55:28.238Z,0.00
2018-08-17T02:56:28.228Z,0.00
2018-08-17T02:57:28.220Z,0.00
2018-08-17T02:58:28.209Z,0.00
2018-08-17T02:59:28.262Z,0.00
2018-08-17T03:00:28.198Z,0.00
2018-08-17T03:01:28.199Z,0.00
2018-08-17T03:02:28.179Z,0.00
2018-08-17T03:03:28.182Z,0.00
2018-08-17T03:04:28.162Z,0.00
2018-08-17T03:05:28.159Z,0.00
2018-08-17T03:06:28.154Z,0.00
2018-08-17T03:07:28.137Z,0.00
2018-08-17T03:08:28.133Z,0.00
2018-08-17T03:09:28.128Z,0.00
2018-08-17T03:10:28.117Z,0.00
2018-08-17T03:11:28.104Z,0.00
2018-08-17T03:12:28.098Z,0.00
2018-08-17T03:13:28.093Z,0.00
2018-08-17T03:14:28.091Z,0.00
2018-08-17T03:15:28.077Z,0.00
2018-08-17T03:16:28.067Z,0.00
2018-08-17T03:17:28.059Z,0.00
2018-08-17T03:18:28.054Z,0.00
2018-08-17T03:19:28.044Z,0.00
2018-08-17T03:20:28.035Z,0.00
2018-08-17T03:21:28.030Z,0.00
2018-08-17T03:22:28.012Z,0.00
2018-08-17T03:23:28.006Z,0.00
2018-08-17T03:24:28.001Z,0.00
2018-08-17T03:25:27.993Z,0.00
2018-08-17T03:26:27.980Z,0.00
2018-08-17T03:27:27.970Z,0.00
2018-08-17T03:28:27.967Z,0.00
2018-08-17T03:29:27.956Z,0.00
2018-08-17T03:30:27.950Z,0.00
2018-08-17T03:31:27.943Z,0.00
2018-08-17T03:32:27.933Z,0.00
2018-08-17T03:33:27.924Z,0.00
2018-08-17T03:34:27.913Z,0.00
2018-08-17T03:35:27.912Z,0.00
2018-08-17T03:36:27.898Z,0.00
2018-08-17T03:37:27.895Z,0.00
2018-08-17T03:38:27.886Z,0.00
2018-08-17T03:39:27.877Z,0.00
2018-08-17T03:40:27.911Z,0.00
2018-08-17T03:41:27.850Z,0.00
2018-08-17T03:42:27.848Z,0.00
2018-08-17T03:43:27.835Z,0.00
2018-08-17T03:44:27.830Z,0.00
2018-08-17T03:45:27.828Z,0.00
2018-08-17T03:46:27.818Z,0.00
2018-08-17T03:47:27.806Z,0.00
2018-08-17T03:48:27.795Z,0.00
2018-08-17T03:49:27.789Z,0.00
2018-08-17T03:50:27.778Z,0.00
2018-08-17T03:51:27.773Z,0.00
2018-08-17T03:52:27.764Z,0.00
2018-08-17T03:53:27.754Z,0.00
2018-08-17T03:54:27.745Z,0.00
2018-08-17T03:55:27.738Z,0.00
2018-08-17T03:56:27.724Z,0.00
2018-08-17T03:57:27.722Z,0.00
2018-08-17T03:58:27.714Z,0.00
2018-08-17T03:59:27.702Z,0.00
2018-08-17T04:00:27.694Z,0.00
2018-08-17T04:01:27.717Z,0.00
2018-08-17T04:02:27.680Z,0.00
2018-08-17T04:03:27.676Z,0.00
2018-08-17T04:04:27.658Z,0.00
2018-08-17T04:05:27.663Z,0.00
2018-08-17T04:06:27.647Z,4.00
2018-08-17T04:07:27.637Z,0.00
2018-08-17T04:08:27.627Z,0.00
2018-08-17T04:09:27.627Z,4.00
2018-08-17T04:10:27.609Z,4.00
2018-08-17T04:11:27.601Z,0.00
2018-08-17T04:12:27.601Z,4.00
2018-08-17T04:13:27.586Z,4.00
2018-08-17T04:14:27.574Z,4.00
2018-08-17T04:15:27.589Z,4.00
2018-08-17T04:16:27.562Z,4.00
2018-08-17T04:17:27.546Z,4.00
2018-08-17T04:18:27.540Z,4.00
2018-08-17T04:19:27.535Z,8.00
2018-08-17T04:20:27.525Z,8.00
2018-08-17T04:21:27.519Z,8.00
2018-08-17T04:22:27.509Z,12.00
2018-08-17T04:23:27.502Z,12.00
2018-08-17T04:24:27.488Z,12.00
2018-08-17T04:25:27.484Z,12.00
2018-08-17T04:26:27.475Z,12.00
2018-08-17T04:27:27.469Z,12.00
2018-08-17T04:28:27.457Z,12.00
2018-08-17T04:29:27.449Z,16.00
2018-08-17T04:30:27.443Z,16.00
2018-08-17T04:31:27.440Z,16.00
2018-08-17T04:32:27.422Z,16.00
2018-08-17T04:33:27.421Z,20.00
2018-08-17T04:34:27.410Z,24.00
2018-08-17T04:35:30.114Z,24.00
2018-08-17T04:36:27.393Z,24.00
2018-08-17T04:37:27.380Z,24.00
2018-08-17T04:38:27.376Z,28.00
2018-08-17T04:39:27.369Z,28.00
2018-08-17T04:40:27.358Z,28.00
2018-08-17T04:41:27.346Z,32.00
2018-08-17T04:42:27.347Z,32.00
2018-08-17T04:43:27.337Z,32.00
2018-08-17T04:44:27.324Z,36.00
2018-08-17T04:45:27.321Z,36.00
2018-08-17T04:46:27.308Z,40.00
2018-08-17T04:47:27.302Z,40.00
2018-08-17T04:48:27.291Z,40.00
2018-08-17T04:49:27.287Z,40.00
2018-08-17T04:50:27.275Z,40.00
2018-08-17T04:51:27.262Z,48.00
2018-08-17T04:52:27.249Z,48.00
2018-08-17T04:53:27.247Z,48.00
2018-08-17T04:54:27.236Z,48.00
2018-08-17T04:55:27.231Z,48.00
2018-08-17T04:56:27.221Z,52.00
2018-08-17T04:57:27.213Z,52.00
2018-08-17T04:58:27.207Z,52.00
2018-08-17T04:59:27.197Z,56.00
2018-08-17T05:00:27.189Z,60.00
2018-08-17T05:01:27.175Z,60.00
2018-08-17T05:02:27.173Z,60.00
2018-08-17T05:03:27.182Z,60.00
2018-08-17T05:04:27.150Z,64.00
2018-08-17T05:05:27.142Z,64.00
2018-08-17T05:06:27.134Z,64.00
2018-08-17T05:07:27.133Z,68.00
2018-08-17T05:08:27.119Z,68.00
2018-08-17T05:09:27.111Z,68.00
2018-08-17T05:10:27.105Z,72.00
2018-08-17T05:11:27.099Z,72.00
2018-08-17T05:12:27.081Z,72.00
2018-08-17T05:13:27.075Z,76.00
2018-08-17T05:14:27.069Z,76.00
2018-08-17T05:15:27.060Z,76.00
2018-08-17T05:16:27.048Z,80.00
2018-08-17T05:17:27.044Z,80.00
2018-08-17T05:18:27.036Z,80.00
2018-08-17T05:19:27.023Z,80.00
2018-08-17T05:20:27.019Z,80.00
2018-08-17T05:21:27.041Z,84.00
2018-08-17T05:22:26.999Z,84.00
2018-08-17T05:23:27.058Z,84.00
2018-08-17T05:24:26.983Z,88.00
2018-08-17T05:25:26.978Z,88.00
2018-08-17T05:26:26.968Z,88.00
2018-08-17T05:27:26.955Z,92.00
2018-08-17T05:28:26.954Z,92.00
2018-08-17T05:29:26.941Z,88.00
2018-08-17T05:30:26.926Z,92.00
2018-08-17T05:31:26.925Z,92.00
2018-08-17T05:32:26.914Z,92.00
2018-08-17T05:33:26.907Z,96.00
2018-08-17T05:34:26.903Z,96.00
2018-08-17T05:35:26.890Z,96.00
2018-08-17T05:36:26.888Z,100.00
2018-08-17T05:37:26.871Z,100.00
2018-08-17T05:38:26.864Z,100.00
2018-08-17T05:39:26.849Z,104.00
2018-08-17T05:40:26.849Z,104.00
2018-08-17T05:41:26.833Z,108.00
2018-08-17T05:42:26.827Z,108.00
2018-08-17T05:43:26.819Z,112.00
2018-08-17T05:44:26.813Z,112.00
2018-08-17T05:45:26.809Z,116.00
2018-08-17T05:46:26.791Z,120.00
2018-08-17T05:47:26.805Z,120.00
2018-08-17T05:48:26.779Z,124.00
2018-08-17T05:49:26.776Z,128.00
2018-08-17T05:50:26.763Z,128.00
2018-08-17T05:51:26.759Z,132.00
2018-08-17T05:52:26.746Z,136.00
2018-08-17T05:53:26.735Z,140.00
2018-08-17T05:54:26.731Z,144.00
2018-08-17T05:55:26.761Z,144.00
2018-08-17T05:56:26.712Z,152.00
2018-08-17T05:57:26.705Z,152.00
2018-08-17T05:58:26.691Z,156.00
2018-08-17T05:59:26.696Z,160.00
2018-08-17T06:00:26.673Z,160.00
2018-08-17T06:01:26.686Z,160.00
2018-08-17T06:02:26.657Z,160.00
2018-08-17T06:03:26.652Z,156.00
2018-08-17T06:04:26.646Z,148.00
2018-08-17T06:05:26.636Z,148.00
2018-08-17T06:06:26.628Z,144.00
2018-08-17T06:07:26.622Z,140.00
2018-08-17T06:08:26.606Z,140.00
2018-08-17T06:09:26.600Z,140.00
2018-08-17T06:10:26.592Z,140.00
2018-08-17T06:11:26.700Z,144.00
2018-08-17T06:12:26.573Z,144.00
2018-08-17T06:13:26.567Z,148.00
2018-08-17T06:14:26.558Z,152.00
2018-08-17T06:15:26.549Z,156.00
2018-08-17T06:16:26.541Z,160.00
2018-08-17T06:17:26.533Z,164.00
2018-08-17T06:18:26.526Z,176.00
2018-08-17T06:19:26.514Z,180.00
2018-08-17T06:20:26.506Z,180.00
2018-08-17T06:21:26.500Z,188.00
2018-08-17T06:22:26.492Z,188.00
2018-08-17T06:23:26.482Z,192.00
2018-08-17T06:24:26.472Z,204.00
2018-08-17T06:25:26.465Z,220.00
2018-08-17T06:26:26.461Z,300.00
2018-08-17T06:27:26.451Z,400.00
2018-08-17T06:28:26.440Z,440.00
2018-08-17T06:29:26.431Z,448.00
2018-08-17T06:30:26.431Z,456.00
2018-08-17T06:31:26.426Z,464.00
2018-08-17T06:32:26.406Z,476.00
2018-08-17T06:33:26.394Z,472.00
2018-08-17T06:34:26.393Z,480.00
2018-08-17T06:35:26.389Z,480.00
2018-08-17T06:36:26.369Z,484.00
2018-08-17T06:37:26.440Z,488.00
2018-08-17T06:38:26.358Z,412.00
2018-08-17T06:39:26.350Z,284.00
2018-08-17T06:40:26.346Z,468.00
2018-08-17T06:41:26.369Z,368.00
2018-08-17T06:42:26.323Z,360.00
2018-08-17T06:43:26.321Z,484.00
2018-08-17T06:44:26.313Z,480.00
2018-08-17T06:45:26.301Z,480.00
2018-08-17T06:46:26.297Z,268.00
2018-08-17T06:47:26.293Z,236.00
2018-08-17T06:48:26.279Z,476.00
2018-08-17T06:49:26.269Z,520.00
2018-08-17T06:50:26.261Z,432.00
2018-08-17T06:51:26.254Z,244.00
2018-08-17T06:52:26.244Z,196.00
2018-08-17T06:53:26.239Z,192.00
2018-08-17T06:54:26.230Z,192.00
2018-08-17T06:55:26.223Z,480.00
2018-08-17T06:56:26.221Z,372.00
2018-08-17T06:57:26.206Z,348.00
2018-08-17T06:58:26.200Z,192.00
2018-08-17T06:59:26.199Z,200.00
2018-08-17T07:00:26.191Z,324.00
2018-08-17T07:01:26.179Z,240.00
2018-08-17T07:02:27.190Z,252.00
2018-08-17T07:03:26.163Z,200.00
2018-08-17T07:04:26.159Z,192.00
2018-08-17T07:05:26.145Z,196.00
2018-08-17T07:06:26.140Z,212.00
2018-08-17T07:07:26.148Z,212.00
2018-08-17T07:08:26.125Z,200.00
2018-08-17T07:09:26.182Z,196.00
2018-08-17T07:10:26.114Z,196.00
2018-08-17T07:11:26.107Z,200.00
2018-08-17T07:12:26.096Z,200.00
2018-08-17T07:13:26.092Z,204.00
2018-08-17T07:14:26.091Z,232.00
2018-08-17T07:15:26.070Z,696.00
2018-08-17T07:16:26.063Z,560.00
2018-08-17T07:17:26.054Z,240.00
2018-08-17T07:18:26.050Z,356.00
2018-08-17T07:19:26.043Z,620.00
2018-08-17T07:20:26.034Z,720.00
2018-08-17T07:21:26.031Z,712.00
2018-08-17T07:22:26.024Z,724.00
2018-08-17T07:23:26.017Z,736.00
2018-08-17T07:24:25.997Z,692.00
2018-08-17T07:25:25.997Z,516.00
2018-08-17T07:26:25.992Z,756.00
2018-08-17T07:27:25.984Z,764.00
2018-08-17T07:28:25.976Z,776.00
2018-08-17T07:29:25.967Z,784.00
2018-08-17T07:30:25.962Z,796.00
2018-08-17T07:31:25.952Z,796.00
2018-08-17T07:32:25.940Z,808.00
2018-08-17T07:33:25.936Z,816.00
2018-08-17T07:34:25.930Z,812.00
2018-08-17T07:35:25.924Z,824.00
2018-08-17T07:36:25.914Z,836.00
2018-08-17T07:37:26.510Z,840.00
2018-08-17T07:38:25.908Z,852.00
2018-08-17T07:39:25.899Z,868.00
2018-08-17T07:40:25.883Z,872.00
2018-08-17T07:41:25.879Z,880.00
2018-08-17T07:42:25.872Z,884.00
2018-08-17T07:43:25.866Z,896.00
2018-08-17T07:44:25.862Z,896.00
2018-08-17T07:45:25.852Z,908.00
2018-08-17T07:46:25.850Z,924.00
2018-08-17T07:47:25.837Z,940.00
2018-08-17T07:48:25.834Z,964.00
2018-08-17T07:49:25.824Z,976.00
2018-08-17T07:50:25.820Z,976.00
2018-08-17T07:51:25.807Z,324.00
2018-08-17T07:52:25.801Z,1004.00
2018-08-17T07:53:25.800Z,1012.00
2018-08-17T07:54:25.791Z,1020.00
2018-08-17T07:55:25.787Z,1028.00
2018-08-17T07:56:25.773Z,1044.00
2018-08-17T07:57:25.771Z,1044.00
2018-08-17T07:58:25.764Z,712.00
2018-08-17T07:59:25.759Z,1064.00
2018-08-17T08:00:25.758Z,1072.00
2018-08-17T08:01:25.744Z,1080.00
2018-08-17T08:02:25.734Z,1092.00
2018-08-17T08:03:25.736Z,1024.00
2018-08-17T08:04:25.724Z,1104.00
2018-08-17T08:05:25.722Z,1008.00
2018-08-17T08:06:25.719Z,944.00
2018-08-17T08:07:25.705Z,1152.00
2018-08-17T08:08:25.703Z,1152.00
2018-08-17T08:09:25.692Z,1164.00
2018-08-17T08:10:25.687Z,764.00
2018-08-17T08:11:25.679Z,812.00
2018-08-17T08:12:25.675Z,1020.00
2018-08-17T08:13:25.668Z,1248.00
2018-08-17T08:14:25.660Z,1096.00
2018-08-17T08:15:25.659Z,672.00
2018-08-17T08:16:25.645Z,704.00
2018-08-17T08:17:25.645Z,1244.00
2018-08-17T08:18:25.639Z,1288.00
2018-08-17T08:19:25.630Z,708.00
2018-08-17T08:20:25.772Z,1284.00
2018-08-17T08:21:25.621Z,632.00
2018-08-17T08:22:25.616Z,1156.00
2018-08-17T08:23:25.606Z,1012.00
2018-08-17T08:24:25.605Z,1256.00
2018-08-17T08:25:25.594Z,1296.00
2018-08-17T08:26:25.590Z,1308.00
2018-08-17T08:27:25.588Z,1316.00
2018-08-17T08:28:25.580Z,1340.00
2018-08-17T08:29:25.567Z,1352.00
2018-08-17T08:30:25.561Z,1352.00
2018-08-17T08:31:25.553Z,1344.00
2018-08-17T08:32:25.602Z,1336.00
2018-08-17T08:33:25.544Z,1300.00
2018-08-17T08:34:25.540Z,1360.00
2018-08-17T08:35:25.536Z,1388.00
2018-08-17T08:36:25.529Z,1416.00
2018-08-17T08:37:25.522Z,460.00
2018-08-17T08:38:25.520Z,500.00
2018-08-17T08:39:25.516Z,980.00
2018-08-17T08:40:25.506Z,1440.00
2018-08-17T08:41:25.506Z,1432.00
2018-08-17T08:42:25.498Z,1436.00
2018-08-17T08:43:25.485Z,892.00
2018-08-17T08:44:25.479Z,636.00
2018-08-17T08:45:25.482Z,1448.00
2018-08-17T08:46:25.471Z,1448.00
2018-08-17T08:47:25.467Z,1464.00
2018-08-17T08:48:25.479Z,1476.00
2018-08-17T08:49:25.455Z,536.00
2018-08-17T08:50:25.449Z,492.00
2018-08-17T08:51:25.444Z,456.00
2018-08-17T08:52:25.435Z,452.00
2018-08-17T08:53:25.434Z,808.00
2018-08-17T08:54:25.432Z,480.00
2018-08-17T08:55:25.424Z,468.00
2018-08-17T08:56:25.418Z,492.00
2018-08-17T08:57:25.407Z,668.00
2018-08-17T08:58:25.410Z,688.00
2018-08-17T08:59:25.395Z,500.00
2018-08-17T09:00:25.390Z,408.00
2018-08-17T09:01:25.389Z,388.00
2018-08-17T09:02:25.379Z,804.00
2018-08-17T09:03:25.378Z,512.00
2018-08-17T09:04:25.366Z,1540.00
2018-08-17T09:05:25.363Z,1552.00
2018-08-17T09:06:25.356Z,1552.00
2018-08-17T09:07:25.355Z,1524.00
2018-08-17T09:08:25.345Z,1512.00
2018-08-17T09:09:25.341Z,1516.00
2018-08-17T09:10:25.332Z,1512.00
2018-08-17T09:11:25.330Z,1512.00
2018-08-17T09:12:25.326Z,1520.00
2018-08-17T09:13:25.320Z,1532.00
2018-08-17T09:14:25.312Z,1400.00
2018-08-17T09:15:25.307Z,432.00
2018-08-17T09:16:25.299Z,476.00
2018-08-17T09:17:25.293Z,640.00
2018-08-17T09:18:25.294Z,1372.00
2018-08-17T09:19:25.293Z,1596.00
2018-08-17T09:20:25.356Z,1564.00
2018-08-17T09:21:25.270Z,1580.00
2018-08-17T09:22:25.268Z,1596.00
2018-08-17T09:23:25.260Z,1636.00
2018-08-17T09:24:25.281Z,1660.00
2018-08-17T09:25:25.249Z,1416.00
2018-08-17T09:26:25.246Z,568.00
2018-08-17T09:27:25.242Z,576.00
2018-08-17T09:28:25.237Z,652.00
2018-08-17T09:29:25.227Z,736.00
2018-08-17T09:30:25.221Z,1208.00
2018-08-17T09:31:25.216Z,1452.00
2018-08-17T09:32:25.217Z,1440.00
2018-08-17T09:33:25.202Z,1288.00
2018-08-17T09:34:25.204Z,1296.00
2018-08-17T09:35:25.196Z,1156.00
2018-08-17T09:36:25.187Z,1672.00
2018-08-17T09:37:25.185Z,1612.00
2018-08-17T09:38:25.187Z,1616.00
2018-08-17T09:39:25.167Z,1620.00
2018-08-17T09:40:25.166Z,1428.00
2018-08-17T09:41:25.154Z,1552.00
2018-08-17T09:42:25.155Z,1532.00
2018-08-17T09:43:25.144Z,1608.00
2018-08-17T09:44:25.156Z,1624.00
2018-08-17T09:45:25.138Z,1612.00
2018-08-17T09:46:25.125Z,1604.00
2018-08-17T09:47:25.130Z,1560.00
2018-08-17T09:48:25.125Z,1588.00
2018-08-17T09:49:25.116Z,1604.00
2018-08-17T09:50:25.112Z,1616.00
2018-08-17T09:51:25.201Z,1632.00
2018-08-17T09:52:25.099Z,1608.00
2018-08-17T09:53:25.095Z,1536.00
2018-08-17T09:54:25.092Z,1512.00
2018-08-17T09:55:25.084Z,1472.00
2018-08-17T09:56:25.092Z,1556.00
2018-08-17T09:57:25.119Z,1508.00
2018-08-17T09:58:25.079Z,1460.00
2018-08-17T09:59:25.067Z,1652.00
2018-08-17T10:00:25.064Z,1656.00
2018-08-17T10:01:25.052Z,1612.00
2018-08-17T10:02:25.044Z,1632.00
2018-08-17T10:03:25.043Z,1556.00
2018-08-17T10:04:25.037Z,1564.00
2018-08-17T10:05:25.031Z,1528.00
2018-08-17T10:06:25.035Z,1604.00
2018-08-17T10:07:25.023Z,1720.00
2018-08-17T10:08:25.022Z,1700.00
2018-08-17T10:09:25.013Z,1692.00
2018-08-17T10:10:25.009Z,1680.00
2018-08-17T10:11:25.004Z,1672.00
2018-08-17T10:12:25.000Z,1672.00
2018-08-17T10:13:24.996Z,1664.00
2018-08-17T10:14:24.990Z,1656.00
2018-08-17T10:15:24.982Z,1652.00
2018-08-17T10:16:24.983Z,1644.00
2018-08-17T10:17:24.979Z,1632.00
2018-08-17T10:18:24.974Z,1632.00
2018-08-17T10:19:24.968Z,1640.00
2018-08-17T10:20:24.959Z,1648.00
2018-08-17T10:21:25.136Z,1652.00
2018-08-17T10:22:24.950Z,1652.00
2018-08-17T10:23:24.943Z,1656.00
2018-08-17T10:24:24.938Z,1664.00
2018-08-17T10:25:24.935Z,1664.00
2018-08-17T10:26:24.936Z,1664.00
2018-08-17T10:27:24.927Z,1668.00
2018-08-17T10:28:24.918Z,1676.00
2018-08-17T10:29:24.914Z,1680.00
2018-08-17T10:30:24.916Z,1684.00
2018-08-17T10:31:24.906Z,1692.00
2018-08-17T10:32:24.902Z,1704.00
2018-08-17T10:33:24.896Z,1704.00
2018-08-17T10:34:24.892Z,1704.00
2018-08-17T10:35:24.887Z,1708.00
2018-08-17T10:36:24.881Z,1696.00
2018-08-17T10:37:24.879Z,1724.00
2018-08-17T10:38:24.875Z,1724.00
2018-08-17T10:39:24.873Z,1724.00
2018-08-17T10:40:24.865Z,1728.00
2018-08-17T10:41:24.864Z,1740.00
2018-08-17T10:42:24.859Z,1744.00
2018-08-17T10:43:24.851Z,1744.00
2018-08-17T10:44:24.845Z,1748.00
2018-08-17T10:45:24.843Z,1740.00
2018-08-17T10:46:24.840Z,1744.00
2018-08-17T10:47:24.832Z,1744.00
2018-08-17T10:48:24.832Z,1752.00
2018-08-17T10:49:24.826Z,1756.00
2018-08-17T10:50:24.821Z,1764.00
2018-08-17T10:51:24.820Z,1772.00
2018-08-17T10:52:24.815Z,1780.00
2018-08-17T10:53:24.805Z,1796.00
2018-08-17T10:54:24.807Z,1816.00
2018-08-17T10:55:24.831Z,1828.00
2018-08-17T10:56:24.794Z,1828.00
2018-08-17T10:57:24.814Z,1828.00
2018-08-17T10:58:24.789Z,1836.00
2018-08-17T10:59:24.783Z,1852.00
2018-08-17T11:00:24.779Z,1872.00
2018-08-17T11:01:24.773Z,1880.00
2018-08-17T11:02:24.771Z,1888.00
2018-08-17T11:03:24.770Z,1892.00
2018-08-17T11:04:24.761Z,1904.00
2018-08-17T11:05:24.760Z,1916.00
2018-08-17T11:06:24.753Z,1924.00
2018-08-17T11:07:24.749Z,1920.00
2018-08-17T11:08:24.744Z,1936.00
2018-08-17T11:09:24.747Z,1952.00
2018-08-17T11:10:24.737Z,1956.00
2018-08-17T11:11:24.738Z,1976.00
2018-08-17T11:12:24.730Z,1964.00
2018-08-17T11:13:24.731Z,1956.00
2018-08-17T11:14:24.731Z,1960.00
2018-08-17T11:15:24.717Z,1888.00
2018-08-17T11:16:24.713Z,2020.00
2018-08-17T11:17:24.710Z,2012.00
2018-08-17T11:18:24.703Z,2004.00
2018-08-17T11:19:24.703Z,2024.00
2018-08-17T11:20:24.697Z,2020.00
2018-08-17T11:21:24.697Z,2036.00
2018-08-17T11:22:24.689Z,2032.00
2018-08-17T11:23:24.684Z,2020.00
2018-08-17T11:24:24.686Z,2040.00
2018-08-17T11:25:24.674Z,2072.00
2018-08-17T11:26:24.677Z,2064.00
2018-08-17T11:27:24.669Z,2060.00
2018-08-17T11:28:24.660Z,2064.00
2018-08-17T11:29:24.663Z,2064.00
2018-08-17T11:30:24.661Z,2068.00
2018-08-17T11:31:24.652Z,2068.00
2018-08-17T11:32:24.654Z,2052.00
2018-08-17T11:33:24.652Z,2040.00
2018-08-17T11:34:24.737Z,2124.00
2018-08-17T11:35:24.640Z,2136.00
2018-08-17T11:36:24.643Z,2144.00
2018-08-17T11:37:24.639Z,2152.00
2018-08-17T11:38:24.628Z,2160.00
2018-08-17T11:39:24.627Z,2144.00
2018-08-17T11:40:24.621Z,2156.00
2018-08-17T11:41:24.655Z,2156.00
2018-08-17T11:42:24.617Z,2164.00
2018-08-17T11:43:24.611Z,2180.00
2018-08-17T11:44:24.608Z,2192.00
2018-08-17T11:45:24.597Z,2204.00
2018-08-17T11:46:24.597Z,2244.00
2018-08-17T11:47:24.593Z,2256.00
2018-08-17T11:48:24.601Z,864.00
2018-08-17T11:49:24.596Z,2320.00
2018-08-17T11:50:24.586Z,2332.00
2018-08-17T11:51:24.584Z,2324.00
2018-08-17T11:52:24.580Z,2300.00
2018-08-17T11:53:24.582Z,2280.00
2018-08-17T11:54:24.572Z,2292.00
2018-08-17T11:55:24.567Z,2292.00
2018-08-17T11:56:24.563Z,2296.00
2018-08-17T11:57:24.565Z,2304.00
2018-08-17T11:58:24.565Z,2320.00
2018-08-17T11:59:24.560Z,2328.00
2018-08-17T12:00:24.559Z,2340.00
2018-08-17T12:01:24.550Z,2352.00
2018-08-17T12:02:24.552Z,2368.00
2018-08-17T12:03:24.541Z,2372.00
2018-08-17T12:04:24.542Z,2384.00
2018-08-17T12:05:24.539Z,2392.00
2018-08-17T12:06:24.531Z,2408.00
2018-08-17T12:07:24.536Z,2400.00
2018-08-17T12:08:24.579Z,2400.00
2018-08-17T12:09:24.523Z,2404.00
2018-08-17T12:10:24.523Z,2436.00
2018-08-17T12:11:24.523Z,2448.00
2018-08-17T12:12:24.515Z,2452.00
2018-08-17T12:13:24.506Z,2468.00
2018-08-17T12:14:24.512Z,2476.00
2018-08-17T12:15:24.508Z,2496.00
2018-08-17T12:16:24.498Z,2516.00
2018-08-17T12:17:24.500Z,2516.00
2018-08-17T12:18:24.496Z,2500.00
2018-08-17T12:19:24.496Z,2504.00
2018-08-17T12:20:24.495Z,2500.00
2018-08-17T12:21:24.485Z,2508.00
2018-08-17T12:22:24.486Z,2520.00
2018-08-17T12:23:24.483Z,2520.00
2018-08-17T12:24:24.560Z,2532.00
2018-08-17T12:25:24.480Z,2536.00
2018-08-17T12:26:24.473Z,2536.00
2018-08-17T12:27:24.471Z,2540.00
2018-08-17T12:28:24.464Z,2536.00
2018-08-17T12:29:24.470Z,2548.00
2018-08-17T12:30:24.458Z,2552.00
2018-08-17T12:31:24.458Z,2544.00
2018-08-17T12:32:24.456Z,2532.00
2018-08-17T12:33:24.452Z,2528.00
2018-08-17T12:34:24.452Z,2536.00
2018-08-17T12:35:24.447Z,2544.00
2018-08-17T12:36:24.441Z,2540.00
2018-08-17T12:37:24.437Z,2532.00
2018-08-17T12:38:24.441Z,2536.00
2018-08-17T12:39:24.435Z,2548.00